createdAt,value
2019-05-18T00:02:36.826Z,15.97
2019-05-18T00:06:45.512Z,19.33
2019-05-18T00:10:54.172Z,16.70
2019-05-18T00:15:02.892Z,17.50
2019-05-18T00:19:11.451Z,16.40
2019-05-18T00:23:20.175Z,15.20
2019-05-18T00:27:28.779Z,15.60
2019-05-18T00:31:37.408Z,14.47
2019-05-18T00:35:46.057Z,16.97
2019-05-18T00:39:54.680Z,19.73
2019-05-18T00:44:03.377Z,17.20
2019-05-18T00:48:12.003Z,15.30
2019-05-18T00:52:20.599Z,17.97
2019-05-18T00:56:29.243Z,16.63
2019-05-18T01:00:37.842Z,18.37
2019-05-18T01:04:46.485Z,18.87
2019-05-18T01:08:55.078Z,15.53
2019-05-18T01:13:03.786Z,17.37
2019-05-18T01:17:12.740Z,15.80
2019-05-18T01:21:21.386Z,19.03
2019-05-18T01:25:30.081Z,15.23
2019-05-18T01:29:39.070Z,15.87
2019-05-18T01:33:48.110Z,15.47
2019-05-18T01:37:57.122Z,18.50
2019-05-18T01:42:05.760Z,17.63
2019-05-18T01:46:14.655Z,20.60
2019-05-18T01:50:23.276Z,16.67
2019-05-18T01:54:31.903Z,15.67
2019-05-18T01:58:40.524Z,16.20
2019-05-18T02:02:49.192Z,18.53
2019-05-18T02:06:58.133Z,15.47
2019-05-18T02:11:06.766Z,18.70
2019-05-18T02:15:15.732Z,16.03
2019-05-18T02:19:24.919Z,16.97
2019-05-18T02:23:33.610Z,20.23
2019-05-18T02:27:42.229Z,17.77
2019-05-18T02:31:50.881Z,17.40
2019-05-18T02:35:59.567Z,19.40
2019-05-18T02:40:08.502Z,16.37
2019-05-18T02:44:17.149Z,18.07
2019-05-18T02:48:25.764Z,18.97
2019-05-18T02:52:34.395Z,15.50
2019-05-18T02:56:43.031Z,17.00
2019-05-18T03:00:52.120Z,17.10
2019-05-18T03:05:00.806Z,19.80
2019-05-18T03:09:09.494Z,18.33
2019-05-18T03:13:18.099Z,18.63
2019-05-18T03:17:26.782Z,17.10
2019-05-18T03:21:35.473Z,18.23
2019-05-18T03:25:44.544Z,17.33
2019-05-18T03:29:53.140Z,17.80
2019-05-18T03:34:01.794Z,19.63
2019-05-18T03:38:10.407Z,17.37
2019-05-18T03:42:19.093Z,15.63
2019-05-18T03:46:27.756Z,16.13
2019-05-18T03:50:36.369Z,15.53
2019-05-18T03:54:45.319Z,18.27
2019-05-18T03:58:53.942Z,15.87
2019-05-18T04:03:02.611Z,18.20
2019-05-18T04:07:11.251Z,17.87
2019-05-18T04:11:19.896Z,14.40
2019-05-18T04:15:28.497Z,16.60
2019-05-18T04:19:46.111Z,19.80
2019-05-18T04:23:47.467Z,17.17
2019-05-18T04:27:56.114Z,20.50
2019-05-18T04:32:04.771Z,19.07
2019-05-18T04:36:13.429Z,19.07
2019-05-18T04:40:22.037Z,23.47
2019-05-18T04:44:30.683Z,17.90
2019-05-18T04:48:39.343Z,16.63
2019-05-18T04:52:47.983Z,19.73
2019-05-18T04:56:56.544Z,16.00
2019-05-18T05:01:05.244Z,22.20
2019-05-18T05:05:13.940Z,18.97
2019-05-18T05:09:22.912Z,21.13
2019-05-18T05:13:31.553Z,18.10
2019-05-18T05:17:40.202Z,20.23
2019-05-18T05:21:48.829Z,21.47
2019-05-18T05:25:57.482Z,22.97
2019-05-18T05:30:07.459Z,21.87
2019-05-18T05:34:16.076Z,28.83
2019-05-18T05:38:24.828Z,22.50
2019-05-18T05:42:33.495Z,24.47
2019-05-18T05:46:42.100Z,22.87
2019-05-18T05:50:50.741Z,24.03
2019-05-18T05:54:59.343Z,22.67
2019-05-18T05:59:07.985Z,25.83
2019-05-18T06:03:17.003Z,25.50
2019-05-18T06:07:25.646Z,26.00
2019-05-18T06:11:34.355Z,24.30
2019-05-18T06:15:42.994Z,27.42
2019-05-18T06:20:07.220Z,27.47
2019-05-18T06:24:20.342Z,24.30
2019-05-18T06:28:28.975Z,27.60
2019-05-18T06:32:37.674Z,25.70
2019-05-18T06:36:46.306Z,21.20
2019-05-18T06:40:54.963Z,26.40
2019-05-18T06:45:05.341Z,24.30
2019-05-18T06:49:14.003Z,27.20
2019-05-18T06:53:23.475Z,27.90
2019-05-18T06:57:35.544Z,24.10
2019-05-18T07:01:44.542Z,26.90
2019-05-18T07:05:53.548Z,25.13
2019-05-18T07:10:02.199Z,26.57
2019-05-18T07:14:23.581Z,29.23
2019-05-18T07:18:21.079Z,25.43
2019-05-18T07:22:29.601Z,23.10
2019-05-18T07:26:38.238Z,22.10
2019-05-18T07:30:46.878Z,25.40
2019-05-18T07:34:55.904Z,25.63
2019-05-18T07:39:05.879Z,23.37
2019-05-18T07:43:14.609Z,24.60
2019-05-18T07:47:23.205Z,26.13
2019-05-18T07:51:36.939Z,24.80
2019-05-18T07:55:42.116Z,24.23
2019-05-18T07:59:50.819Z,26.60
2019-05-18T08:03:59.412Z,22.27
2019-05-18T08:08:08.044Z,23.57
2019-05-18T08:12:16.614Z,21.60
2019-05-18T08:16:25.328Z,22.73
2019-05-18T08:20:37.036Z,19.40
2019-05-18T08:24:45.648Z,17.07
2019-05-18T08:28:54.293Z,15.40
2019-05-18T08:33:02.951Z,14.60
2019-05-18T08:37:11.921Z,21.40
2019-05-18T08:41:20.586Z,14.80
2019-05-18T08:45:29.432Z,13.33
2019-05-18T08:49:41.038Z,15.20
2019-05-18T08:53:49.729Z,17.80
2019-05-18T08:57:58.459Z,13.50
2019-05-18T09:02:09.933Z,14.17
2019-05-18T09:06:18.555Z,15.83
2019-05-18T09:10:27.173Z,15.37
2019-05-18T09:14:35.781Z,13.10
2019-05-18T09:18:44.448Z,14.20
2019-05-18T09:22:53.042Z,16.63
2019-05-18T09:27:01.657Z,14.77
2019-05-18T09:31:10.642Z,17.20
2019-05-18T09:35:19.544Z,17.23
2019-05-18T09:39:47.855Z,17.50
2019-05-18T09:43:56.470Z,16.00
2019-05-18T09:48:05.544Z,16.93
2019-05-18T09:52:14.233Z,13.97
2019-05-18T09:56:22.817Z,16.80
2019-05-18T10:00:38.525Z,16.50
2019-05-18T10:04:41.867Z,15.57
2019-05-18T10:08:50.514Z,15.00
2019-05-18T10:12:59.150Z,17.40
2019-05-18T10:17:07.737Z,16.07
2019-05-18T10:21:16.383Z,15.23
2019-05-18T10:25:25.018Z,14.33
2019-05-18T10:29:33.712Z,17.43
2019-05-18T10:33:42.411Z,18.20
2019-05-18T10:37:51.037Z,15.57
2019-05-18T10:41:59.688Z,16.77
2019-05-18T10:46:08.293Z,15.10
2019-05-18T10:50:17.084Z,18.60
2019-05-18T10:54:25.983Z,16.57
2019-05-18T10:58:34.602Z,19.90
2019-05-18T11:02:43.310Z,13.23
2019-05-18T11:06:51.918Z,13.90
2019-05-18T11:11:03.379Z,9.77
2019-05-18T11:15:16.024Z,12.53
2019-05-18T11:19:24.838Z,15.37
2019-05-18T11:23:43.179Z,13.40
2019-05-18T11:27:44.215Z,17.60
2019-05-18T11:31:52.849Z,17.80
2019-05-18T11:36:01.547Z,14.60
2019-05-18T11:40:10.889Z,15.83
2019-05-18T11:44:19.615Z,16.70
2019-05-18T11:48:28.254Z,13.50
2019-05-18T11:52:36.958Z,12.30
2019-05-18T11:56:45.635Z,13.00
2019-05-18T12:00:54.238Z,14.60
2019-05-18T12:05:02.861Z,14.50
2019-05-18T12:09:11.509Z,13.43
2019-05-18T12:13:22.422Z,11.90
2019-05-18T12:17:49.807Z,13.07
2019-05-18T12:21:58.824Z,13.67
2019-05-18T12:26:07.438Z,14.13
2019-05-18T12:30:16.547Z,12.83
2019-05-18T12:34:25.157Z,13.37
2019-05-18T12:38:33.802Z,15.67
2019-05-18T12:42:42.462Z,15.50
2019-05-18T12:46:51.091Z,11.03
2019-05-18T12:50:59.687Z,9.33
2019-05-18T12:55:09.103Z,9.53
2019-05-18T12:59:17.639Z,10.30
2019-05-18T13:03:26.283Z,8.37
2019-05-18T13:07:35.394Z,9.20
2019-05-18T13:11:44.030Z,9.63
2019-05-18T13:15:52.672Z,7.60
2019-05-18T13:20:01.413Z,9.07
2019-05-18T13:24:10.110Z,9.23
2019-05-18T13:28:18.756Z,7.60
2019-05-18T13:32:27.377Z,8.80
2019-05-18T13:36:36.006Z,7.63
2019-05-18T13:40:44.655Z,9.03
2019-05-18T13:44:53.274Z,8.25
2019-05-18T13:49:01.879Z,9.30
2019-05-18T13:53:10.912Z,8.50
2019-05-18T13:57:19.641Z,9.27
2019-05-18T14:01:28.367Z,10.30
2019-05-18T14:05:37.456Z,9.30
2019-05-18T14:09:46.026Z,7.93
2019-05-18T14:13:54.655Z,9.03
2019-05-18T14:18:03.278Z,9.43
2019-05-18T14:22:11.881Z,8.47
2019-05-18T14:26:20.873Z,8.87
2019-05-18T14:30:29.513Z,7.67
2019-05-18T14:34:38.169Z,8.10
2019-05-18T14:38:46.816Z,7.97
2019-05-18T14:42:55.395Z,9.30
2019-05-18T14:47:04.224Z,7.87
2019-05-18T14:51:12.790Z,7.80
2019-05-18T14:55:32.863Z,8.40
2019-05-18T14:59:31.763Z,9.70
2019-05-18T15:03:40.793Z,8.77
2019-05-18T15:07:49.493Z,9.90
2019-05-18T15:11:58.128Z,8.77
2019-05-18T15:16:06.836Z,8.07
2019-05-18T15:20:15.912Z,8.03
2019-05-18T15:24:25.002Z,8.43
2019-05-18T15:28:33.994Z,8.13
2019-05-18T15:32:42.564Z,8.50
2019-05-18T15:36:51.305Z,8.47
2019-05-18T15:40:59.974Z,11.60
2019-05-18T15:45:09.561Z,7.70
2019-05-18T15:49:18.228Z,7.90
2019-05-18T15:53:26.865Z,10.40
2019-05-18T15:57:35.577Z,8.13
2019-05-18T16:01:44.166Z,7.70
2019-05-18T16:05:53.210Z,7.90
2019-05-18T16:10:01.877Z,7.53
2019-05-18T16:14:10.654Z,8.47
2019-05-18T16:18:23.044Z,10.90
2019-05-18T16:22:31.669Z,7.00
2019-05-18T16:26:40.326Z,6.03
2019-05-18T16:30:49.754Z,7.70
2019-05-18T16:34:58.755Z,5.23
2019-05-18T16:39:08.503Z,3.70
2019-05-18T16:43:17.110Z,4.33
2019-05-18T16:47:25.799Z,5.27
2019-05-18T16:51:34.810Z,6.40
2019-05-18T16:55:43.687Z,4.03
2019-05-18T16:59:52.384Z,5.03
2019-05-18T17:04:01.008Z,3.63
2019-05-18T17:08:09.601Z,3.83
2019-05-18T17:12:18.286Z,3.90
2019-05-18T17:16:26.894Z,5.80
2019-05-18T17:20:38.923Z,5.40
2019-05-18T17:24:47.564Z,10.50
2019-05-18T17:28:56.201Z,3.63
2019-05-18T17:33:04.797Z,9.03
2019-05-18T17:37:13.712Z,5.17
2019-05-18T17:41:22.312Z,4.43
2019-05-18T17:45:31.009Z,4.70
2019-05-18T17:49:39.672Z,5.57
2019-05-18T17:53:48.775Z,7.53
2019-05-18T17:57:57.317Z,6.00
2019-05-18T18:02:05.931Z,5.53
2019-05-18T18:06:14.693Z,5.70
2019-05-18T18:10:23.698Z,8.10
2019-05-18T18:14:32.367Z,9.00
2019-05-18T18:18:40.970Z,6.90
2019-05-18T18:22:49.625Z,8.27
2019-05-18T18:26:58.584Z,6.87
2019-05-18T18:31:26.573Z,7.60
2019-05-18T18:35:35.146Z,8.47
2019-05-18T18:39:43.884Z,7.10
2019-05-18T18:43:52.486Z,6.00
2019-05-18T18:48:01.111Z,6.77
2019-05-18T18:52:09.705Z,6.87
2019-05-18T18:56:18.294Z,6.40
2019-05-18T19:00:26.948Z,6.23
2019-05-18T19:04:35.623Z,6.63
2019-05-18T19:08:44.559Z,6.53
2019-05-18T19:12:53.163Z,6.30
2019-05-18T19:17:01.762Z,5.40
2019-05-18T19:21:10.352Z,6.43
2019-05-18T19:25:19.228Z,8.70
2019-05-18T19:29:27.858Z,6.90
2019-05-18T19:33:56.187Z,8.63
2019-05-18T19:38:04.902Z,8.37
2019-05-18T19:42:14.009Z,14.07
2019-05-18T19:46:22.637Z,10.47
2019-05-18T19:50:31.254Z,12.53
2019-05-18T19:54:39.941Z,12.13
2019-05-18T19:58:48.828Z,13.40
2019-05-18T20:02:57.810Z,14.33
2019-05-18T20:07:06.466Z,14.27
2019-05-18T20:11:15.115Z,13.90
2019-05-18T20:15:23.770Z,13.20
2019-05-18T20:19:39.060Z,14.73
2019-05-18T20:23:42.703Z,14.30
2019-05-18T20:27:51.296Z,15.67
2019-05-18T20:31:59.944Z,34.20
2019-05-18T20:36:08.588Z,19.33
2019-05-18T20:40:18.171Z,15.50
2019-05-18T20:44:26.838Z,17.87
2019-05-18T20:48:35.489Z,18.73
2019-05-18T20:52:44.190Z,19.00
2019-05-18T20:56:56.187Z,25.37
2019-05-18T21:01:04.625Z,22.60
2019-05-18T21:05:13.623Z,20.60
2019-05-18T21:09:22.250Z,21.00
2019-05-18T21:13:30.866Z,21.60
2019-05-18T21:17:58.840Z,21.57
2019-05-18T21:22:07.810Z,22.53
2019-05-18T21:26:16.825Z,23.40
2019-05-18T21:30:28.402Z,21.97
2019-05-18T21:34:37.011Z,22.30
2019-05-18T21:38:45.618Z,19.67
2019-05-18T21:42:54.293Z,22.20
2019-05-18T21:47:02.898Z,21.30
2019-05-18T21:51:11.535Z,20.63
2019-05-18T21:55:20.145Z,20.90
2019-05-18T21:59:28.773Z,18.50
2019-05-18T22:03:37.370Z,19.02
2019-05-18T22:07:46.287Z,17.90
2019-05-18T22:11:54.937Z,16.87
2019-05-18T22:16:22.879Z,17.87
2019-05-18T22:20:32.769Z,18.13
2019-05-18T22:24:41.361Z,18.10
2019-05-18T22:28:50.033Z,17.93
2019-05-18T22:33:18.094Z,20.77
2019-05-18T22:37:26.686Z,18.20
2019-05-18T22:41:36.275Z,17.47
2019-05-18T22:45:44.905Z,19.37
2019-05-18T22:49:53.515Z,21.87
2019-05-18T22:54:02.160Z,21.77
2019-05-18T22:58:10.850Z,19.97
2019-05-18T23:02:19.495Z,20.40
2019-05-18T23:06:28.124Z,23.03
2019-05-18T23:10:36.786Z,23.17
2019-05-18T23:14:45.829Z,20.77
2019-05-18T23:18:57.219Z,21.57
2019-05-18T23:23:05.134Z,22.83
2019-05-18T23:27:13.773Z,26.70
2019-05-18T23:31:22.366Z,29.73
2019-05-18T23:35:30.982Z,25.17
2019-05-18T23:39:39.628Z,24.27
2019-05-18T23:43:48.237Z,22.33
2019-05-18T23:47:59.393Z,23.30
2019-05-18T23:52:07.144Z,21.63
2019-05-18T23:56:16.130Z,21.47
